sensor_id;sensor_type;location;lat;lon;timestamp;temperature;humidity
76785;SHT30;66893;44.316;0.092;2023-03-20T00:00:56;19.62;45.00
76785;SHT30;66893;44.316;0.092;2023-03-20T00:03:22;19.61;45.01
76785;SHT30;66893;44.316;0.092;2023-03-20T00:05:47;19.58;45.11
76785;SHT30;66893;44.316;0.092;2023-03-20T00:08:15;19.58;45.13
76785;SHT30;66893;44.316;0.092;2023-03-20T00:10:43;19.55;45.20
76785;SHT30;66893;44.316;0.092;2023-03-20T00:13:21;19.55;45.24
76785;SHT30;66893;44.316;0.092;2023-03-20T00:15:48;19.51;45.24
76785;SHT30;66893;44.316;0.092;2023-03-20T00:18:19;19.51;45.25
76785;SHT30;66893;44.316;0.092;2023-03-20T00:20:48;19.53;45.27
76785;SHT30;66893;44.316;0.092;2023-03-20T00:23:15;19.49;45.36
76785;SHT30;66893;44.316;0.092;2023-03-20T00:25:44;19.47;45.40
76785;SHT30;66893;44.316;0.092;2023-03-20T00:28:29;19.44;45.40
76785;SHT30;66893;44.316;0.092;2023-03-20T00:30:57;19.43;45.44
76785;SHT30;66893;44.316;0.092;2023-03-20T00:33:23;19.41;45.47
76785;SHT30;66893;44.316;0.092;2023-03-20T00:35:48;19.40;45.57
76785;SHT30;66893;44.316;0.092;2023-03-20T00:38:13;19.38;45.57
76785;SHT30;66893;44.316;0.092;2023-03-20T00:40:39;19.37;45.60
76785;SHT30;66893;44.316;0.092;2023-03-20T00:43:05;19.35;45.62
76785;SHT30;66893;44.316;0.092;2023-03-20T00:45:33;19.35;45.64
76785;SHT30;66893;44.316;0.092;2023-03-20T00:48:00;19.34;45.63
76785;SHT30;66893;44.316;0.092;2023-03-20T00:50:27;19.33;45.69
76785;SHT30;66893;44.316;0.092;2023-03-20T00:52:57;19.34;45.69
76785;SHT30;66893;44.316;0.092;2023-03-20T00:55:26;19.30;45.72
76785;SHT30;66893;44.316;0.092;2023-03-20T00:57:54;19.27;45.78
76785;SHT30;66893;44.316;0.092;2023-03-20T01:00:39;19.27;45.75
76785;SHT30;66893;44.316;0.092;2023-03-20T01:03:21;19.27;45.78
76785;SHT30;66893;44.316;0.092;2023-03-20T01:05:48;19.24;45.80
76785;SHT30;66893;44.316;0.092;2023-03-20T01:08:19;19.22;45.85
76785;SHT30;66893;44.316;0.092;2023-03-20T01:10:48;19.22;45.88
76785;SHT30;66893;44.316;0.092;2023-03-20T01:13:28;19.20;45.93
76785;SHT30;66893;44.316;0.092;2023-03-20T01:15:55;19.20;45.91
76785;SHT30;66893;44.316;0.092;2023-03-20T01:18:23;19.17;45.92
76785;SHT30;66893;44.316;0.092;2023-03-20T01:20:49;19.17;45.98
76785;SHT30;66893;44.316;0.092;2023-03-20T01:23:15;19.16;46.00
76785;SHT30;66893;44.316;0.092;2023-03-20T01:25:41;19.14;46.04
76785;SHT30;66893;44.316;0.092;2023-03-20T01:28:25;19.13;46.04
76785;SHT30;66893;44.316;0.092;2023-03-20T01:30:52;19.12;46.11
76785;SHT30;66893;44.316;0.092;2023-03-20T01:33:22;19.10;46.11
76785;SHT30;66893;44.316;0.092;2023-03-20T01:35:49;19.10;46.13
76785;SHT30;66893;44.316;0.092;2023-03-20T01:38:20;19.09;46.18
76785;SHT30;66893;44.316;0.092;2023-03-20T01:43:18;19.06;46.25
76785;SHT30;66893;44.316;0.092;2023-03-20T01:46:23;19.06;46.23
76785;SHT30;66893;44.316;0.092;2023-03-20T01:51:22;19.02;46.32
76785;SHT30;66893;44.316;0.092;2023-03-20T01:53:56;19.02;46.36
76785;SHT30;66893;44.316;0.092;2023-03-20T01:56:23;18.99;46.38
76785;SHT30;66893;44.316;0.092;2023-03-20T01:58:55;18.99;46.42
76785;SHT30;66893;44.316;0.092;2023-03-20T02:01:23;18.98;46.43
76785;SHT30;66893;44.316;0.092;2023-03-20T02:03:50;18.96;46.51
76785;SHT30;66893;44.316;0.092;2023-03-20T02:06:17;18.96;46.49
76785;SHT30;66893;44.316;0.092;2023-03-20T02:08:47;18.96;46.54
76785;SHT30;66893;44.316;0.092;2023-03-20T02:11:14;18.95;46.56
76785;SHT30;66893;44.316;0.092;2023-03-20T02:13:41;18.95;46.62
76785;SHT30;66893;44.316;0.092;2023-03-20T02:16:11;18.91;46.65
76785;SHT30;66893;44.316;0.092;2023-03-20T02:18:38;18.89;46.64
76785;SHT30;66893;44.316;0.092;2023-03-20T02:21:18;18.89;46.72
76785;SHT30;66893;44.316;0.092;2023-03-20T02:26:59;18.86;46.76
76785;SHT30;66893;44.316;0.092;2023-03-20T02:29:48;18.85;46.74
76785;SHT30;66893;44.316;0.092;2023-03-20T02:41:20;18.79;46.91
76785;SHT30;66893;44.316;0.092;2023-03-20T02:55:01;18.72;47.07
76785;SHT30;66893;44.316;0.092;2023-03-20T02:57:55;18.72;47.10
76785;SHT30;66893;44.316;0.092;2023-03-20T03:00:31;18.72;47.13
76785;SHT30;66893;44.316;0.092;2023-03-20T03:03:07;18.69;47.13
76785;SHT30;66893;44.316;0.092;2023-03-20T03:05:48;18.71;47.18
76785;SHT30;66893;44.316;0.092;2023-03-20T03:08:19;18.71;47.23
76785;SHT30;66893;44.316;0.092;2023-03-20T03:11:06;18.68;47.21
76785;SHT30;66893;44.316;0.092;2023-03-20T03:13:36;18.65;47.21
76785;SHT30;66893;44.316;0.092;2023-03-20T03:16:08;18.69;47.28
76785;SHT30;66893;44.316;0.092;2023-03-20T03:18:36;18.67;47.32
76785;SHT30;66893;44.316;0.092;2023-03-20T03:21:05;18.62;47.33
76785;SHT30;66893;44.316;0.092;2023-03-20T03:23:39;18.64;47.34
76785;SHT30;66893;44.316;0.092;2023-03-20T03:26:06;18.65;47.42
76785;SHT30;66893;44.316;0.092;2023-03-20T03:28:37;18.59;47.43
76785;SHT30;66893;44.316;0.092;2023-03-20T03:31:08;18.61;47.45
76785;SHT30;66893;44.316;0.092;2023-03-20T03:33:38;18.57;47.45
76785;SHT30;66893;44.316;0.092;2023-03-20T03:36:14;18.59;47.47
76785;SHT30;66893;44.316;0.092;2023-03-20T03:38:53;18.59;47.50
76785;SHT30;66893;44.316;0.092;2023-03-20T03:44:41;18.58;47.51
76785;SHT30;66893;44.316;0.092;2023-03-20T03:47:20;18.57;47.59
76785;SHT30;66893;44.316;0.092;2023-03-20T03:49:50;18.54;47.60
76785;SHT30;66893;44.316;0.092;2023-03-20T03:52:21;18.54;47.63
76785;SHT30;66893;44.316;0.092;2023-03-20T03:54:51;18.51;47.67
76785;SHT30;66893;44.316;0.092;2023-03-20T03:57:23;18.54;47.67
76785;SHT30;66893;44.316;0.092;2023-03-20T03:59:52;18.50;47.72
76785;SHT30;66893;44.316;0.092;2023-03-20T04:02:21;18.51;47.72
76785;SHT30;66893;44.316;0.092;2023-03-20T04:04:50;18.50;47.76
76785;SHT30;66893;44.316;0.092;2023-03-20T04:07:17;18.48;47.81
76785;SHT30;66893;44.316;0.092;2023-03-20T04:09:43;18.47;47.79
76785;SHT30;66893;44.316;0.092;2023-03-20T04:14:51;18.45;47.80
76785;SHT30;66893;44.316;0.092;2023-03-20T04:17:16;18.44;47.85
76785;SHT30;66893;44.316;0.092;2023-03-20T04:19:42;18.44;47.87
76785;SHT30;66893;44.316;0.092;2023-03-20T04:22:07;18.44;47.86
76785;SHT30;66893;44.316;0.092;2023-03-20T04:24:33;18.41;47.90
76785;SHT30;66893;44.316;0.092;2023-03-20T04:26:58;18.41;47.92
76785;SHT30;66893;44.316;0.092;2023-03-20T04:29:23;18.40;47.88
76785;SHT30;66893;44.316;0.092;2023-03-20T04:31:50;18.40;47.98
76785;SHT30;66893;44.316;0.092;2023-03-20T04:34:15;18.40;47.94
76785;SHT30;66893;44.316;0.092;2023-03-20T04:36:42;18.37;48.03
76785;SHT30;66893;44.316;0.092;2023-03-20T04:39:07;18.36;48.03
76785;SHT30;66893;44.316;0.092;2023-03-20T04:41:33;18.36;48.01
76785;SHT30;66893;44.316;0.092;2023-03-20T04:43:58;18.36;48.06
76785;SHT30;66893;44.316;0.092;2023-03-20T04:46:24;18.36;48.07
76785;SHT30;66893;44.316;0.092;2023-03-20T04:48:49;18.30;48.04
76785;SHT30;66893;44.316;0.092;2023-03-20T04:51:15;18.33;48.00
76785;SHT30;66893;44.316;0.092;2023-03-20T04:53:40;18.31;48.10
76785;SHT30;66893;44.316;0.092;2023-03-20T04:56:06;18.29;48.06
76785;SHT30;66893;44.316;0.092;2023-03-20T04:58:32;18.30;48.10
76785;SHT30;66893;44.316;0.092;2023-03-20T05:00:57;18.30;48.06
76785;SHT30;66893;44.316;0.092;2023-03-20T05:03:23;18.29;48.14
76785;SHT30;66893;44.316;0.092;2023-03-20T05:05:48;18.27;48.16
76785;SHT30;66893;44.316;0.092;2023-03-20T05:08:13;18.24;48.17
76785;SHT30;66893;44.316;0.092;2023-03-20T05:10:39;18.26;48.20
76785;SHT30;66893;44.316;0.092;2023-03-20T05:13:05;18.26;48.24
76785;SHT30;66893;44.316;0.092;2023-03-20T05:15:30;18.24;48.22
76785;SHT30;66893;44.316;0.092;2023-03-20T05:17:56;18.20;48.22
76785;SHT30;66893;44.316;0.092;2023-03-20T05:20:21;18.23;48.22
76785;SHT30;66893;44.316;0.092;2023-03-20T05:22:50;18.20;48.25
76785;SHT30;66893;44.316;0.092;2023-03-20T05:25:16;18.18;48.23
76785;SHT30;66893;44.316;0.092;2023-03-20T05:27:43;18.17;48.31
76785;SHT30;66893;44.316;0.092;2023-03-20T05:30:09;18.16;48.27
76785;SHT30;66893;44.316;0.092;2023-03-20T05:32:34;18.17;48.30
76785;SHT30;66893;44.316;0.092;2023-03-20T05:35:01;18.17;48.30
76785;SHT30;66893;44.316;0.092;2023-03-20T05:37:26;18.14;48.31
76785;SHT30;66893;44.316;0.092;2023-03-20T05:39:51;18.13;48.32
76785;SHT30;66893;44.316;0.092;2023-03-20T05:42:17;18.12;48.32
76785;SHT30;66893;44.316;0.092;2023-03-20T05:44:42;18.10;48.34
76785;SHT30;66893;44.316;0.092;2023-03-20T05:47:08;18.12;48.35
76785;SHT30;66893;44.316;0.092;2023-03-20T05:49:33;18.12;48.37
76785;SHT30;66893;44.316;0.092;2023-03-20T05:51:59;18.10;48.36
76785;SHT30;66893;44.316;0.092;2023-03-20T05:54:24;18.10;48.36
76785;SHT30;66893;44.316;0.092;2023-03-20T05:56:50;18.10;48.38
76785;SHT30;66893;44.316;0.092;2023-03-20T05:59:15;18.09;48.37
76785;SHT30;66893;44.316;0.092;2023-03-20T06:01:40;18.07;48.37
76785;SHT30;66893;44.316;0.092;2023-03-20T06:04:06;18.06;48.35
76785;SHT30;66893;44.316;0.092;2023-03-20T06:06:32;18.09;48.39
76785;SHT30;66893;44.316;0.092;2023-03-20T06:09:02;18.06;48.35
76785;SHT30;66893;44.316;0.092;2023-03-20T06:11:28;18.07;48.37
76785;SHT30;66893;44.316;0.092;2023-03-20T06:13:53;18.07;48.40
76785;SHT30;66893;44.316;0.092;2023-03-20T06:16:20;18.04;48.36
76785;SHT30;66893;44.316;0.092;2023-03-20T06:18:46;18.06;48.40
76785;SHT30;66893;44.316;0.092;2023-03-20T06:21:11;18.04;48.33
76785;SHT30;66893;44.316;0.092;2023-03-20T06:23:37;17.96;48.18
76785;SHT30;66893;44.316;0.092;2023-03-20T06:26:03;17.81;48.30
76785;SHT30;66893;44.316;0.092;2023-03-20T06:28:28;17.62;48.42
76785;SHT30;66893;44.316;0.092;2023-03-20T06:30:54;17.45;48.60
76785;SHT30;66893;44.316;0.092;2023-03-20T06:33:20;17.31;48.69
76785;SHT30;66893;44.316;0.092;2023-03-20T06:35:46;17.20;48.91
76785;SHT30;66893;44.316;0.092;2023-03-20T06:38:13;17.00;49.03
76785;SHT30;66893;44.316;0.092;2023-03-20T06:40:38;16.87;49.27
76785;SHT30;66893;44.316;0.092;2023-03-20T06:43:04;16.73;49.50
76785;SHT30;66893;44.316;0.092;2023-03-20T06:45:29;16.59;49.65
76785;SHT30;66893;44.316;0.092;2023-03-20T06:47:55;16.54;49.79
76785;SHT30;66893;44.316;0.092;2023-03-20T06:50:21;16.45;49.89
76785;SHT30;66893;44.316;0.092;2023-03-20T06:52:46;16.32;50.04
76785;SHT30;66893;44.316;0.092;2023-03-20T06:55:13;16.30;50.12
76785;SHT30;66893;44.316;0.092;2023-03-20T06:57:38;16.22;50.27
76785;SHT30;66893;44.316;0.092;2023-03-20T07:00:05;16.20;50.29
76785;SHT30;66893;44.316;0.092;2023-03-20T07:02:30;16.11;50.46
76785;SHT30;66893;44.316;0.092;2023-03-20T07:04:56;16.04;50.66
76785;SHT30;66893;44.316;0.092;2023-03-20T07:07:22;15.94;50.71
76785;SHT30;66893;44.316;0.092;2023-03-20T07:09:47;15.89;51.03
76785;SHT30;66893;44.316;0.092;2023-03-20T07:12:15;15.83;50.97
76785;SHT30;66893;44.316;0.092;2023-03-20T07:14:43;15.81;51.46
76785;SHT30;66893;44.316;0.092;2023-03-20T07:17:09;15.75;51.54
76785;SHT30;66893;44.316;0.092;2023-03-20T07:19:35;15.73;51.42
76785;SHT30;66893;44.316;0.092;2023-03-20T07:22:04;15.73;51.56
76785;SHT30;66893;44.316;0.092;2023-03-20T07:24:30;15.70;51.34
76785;SHT30;66893;44.316;0.092;2023-03-20T07:26:57;15.68;51.66
76785;SHT30;66893;44.316;0.092;2023-03-20T07:29:23;15.68;51.98
76785;SHT30;66893;44.316;0.092;2023-03-20T07:31:48;15.66;51.78
76785;SHT30;66893;44.316;0.092;2023-03-20T07:34:14;15.69;51.90
76785;SHT30;66893;44.316;0.092;2023-03-20T07:36:39;15.66;52.10
76785;SHT30;66893;44.316;0.092;2023-03-20T07:39:09;15.69;51.96
76785;SHT30;66893;44.316;0.092;2023-03-20T07:41:35;15.69;52.12
76785;SHT30;66893;44.316;0.092;2023-03-20T07:44:01;15.66;52.35
76785;SHT30;66893;44.316;0.092;2023-03-20T07:46:26;15.66;52.36
76785;SHT30;66893;44.316;0.092;2023-03-20T07:48:52;15.68;52.21
76785;SHT30;66893;44.316;0.092;2023-03-20T07:51:17;15.69;52.52
76785;SHT30;66893;44.316;0.092;2023-03-20T07:53:43;15.70;52.81
76785;SHT30;66893;44.316;0.092;2023-03-20T07:56:08;15.73;52.69
76785;SHT30;66893;44.316;0.092;2023-03-20T07:58:35;15.79;52.59
76785;SHT30;66893;44.316;0.092;2023-03-20T08:01:01;15.86;52.78
76785;SHT30;66893;44.316;0.092;2023-03-20T08:03:28;15.90;52.58
76785;SHT30;66893;44.316;0.092;2023-03-20T08:05:53;15.93;52.49
76785;SHT30;66893;44.316;0.092;2023-03-20T08:08:19;16.00;52.28
76785;SHT30;66893;44.316;0.092;2023-03-20T08:10:45;16.04;52.11
76785;SHT30;66893;44.316;0.092;2023-03-20T08:13:10;16.06;52.15
76785;SHT30;66893;44.316;0.092;2023-03-20T08:15:36;16.14;51.84
76785;SHT30;66893;44.316;0.092;2023-03-20T08:18:01;16.17;51.55
76785;SHT30;66893;44.316;0.092;2023-03-20T08:20:27;16.22;51.42
76785;SHT30;66893;44.316;0.092;2023-03-20T08:22:52;16.25;51.02
76785;SHT30;66893;44.316;0.092;2023-03-20T08:25:17;16.28;50.86
76785;SHT30;66893;44.316;0.092;2023-03-20T08:27:43;16.34;50.76
76785;SHT30;66893;44.316;0.092;2023-03-20T08:30:09;16.38;50.75
76785;SHT30;66893;44.316;0.092;2023-03-20T08:32:35;16.47;50.65
76785;SHT30;66893;44.316;0.092;2023-03-20T08:35:01;16.51;50.65
76785;SHT30;66893;44.316;0.092;2023-03-20T08:37:26;16.57;50.23
76785;SHT30;66893;44.316;0.092;2023-03-20T08:39:52;16.61;50.06
76785;SHT30;66893;44.316;0.092;2023-03-20T08:42:17;16.64;50.08
76785;SHT30;66893;44.316;0.092;2023-03-20T08:44:43;16.69;50.01
76785;SHT30;66893;44.316;0.092;2023-03-20T08:47:09;16.73;49.85
76785;SHT30;66893;44.316;0.092;2023-03-20T08:49:36;16.80;49.54
76785;SHT30;66893;44.316;0.092;2023-03-20T08:52:02;16.83;49.15
76785;SHT30;66893;44.316;0.092;2023-03-20T08:54:28;16.87;49.09
76785;SHT30;66893;44.316;0.092;2023-03-20T08:56:54;16.90;48.99
76785;SHT30;66893;44.316;0.092;2023-03-20T08:59:19;16.89;49.02
76785;SHT30;66893;44.316;0.092;2023-03-20T09:01:45;16.90;48.93
76785;SHT30;66893;44.316;0.092;2023-03-20T09:04:12;16.93;48.73
76785;SHT30;66893;44.316;0.092;2023-03-20T09:06:39;16.92;48.75
76785;SHT30;66893;44.316;0.092;2023-03-20T09:09:05;16.95;48.84
76785;SHT30;66893;44.316;0.092;2023-03-20T09:11:31;16.93;48.66
76785;SHT30;66893;44.316;0.092;2023-03-20T09:13:57;16.90;48.71
76785;SHT30;66893;44.316;0.092;2023-03-20T09:16:24;16.89;48.64
76785;SHT30;66893;44.316;0.092;2023-03-20T09:18:49;16.92;48.68
76785;SHT30;66893;44.316;0.092;2023-03-20T09:21:15;16.92;48.76
76785;SHT30;66893;44.316;0.092;2023-03-20T09:23:40;16.95;48.70
76785;SHT30;66893;44.316;0.092;2023-03-20T09:26:06;16.99;48.72
76785;SHT30;66893;44.316;0.092;2023-03-20T09:28:31;17.02;48.76
76785;SHT30;66893;44.316;0.092;2023-03-20T09:30:58;17.06;48.86
76785;SHT30;66893;44.316;0.092;2023-03-20T09:33:24;17.09;48.82
76785;SHT30;66893;44.316;0.092;2023-03-20T09:35:50;17.13;48.67
76785;SHT30;66893;44.316;0.092;2023-03-20T09:38:16;17.19;48.51
76785;SHT30;66893;44.316;0.092;2023-03-20T09:40:56;17.19;48.53
76785;SHT30;66893;44.316;0.092;2023-03-20T09:43:43;17.26;48.55
76785;SHT30;66893;44.316;0.092;2023-03-20T09:54:42;17.47;48.33
76785;SHT30;66893;44.316;0.092;2023-03-20T09:57:27;17.52;48.26
76785;SHT30;66893;44.316;0.092;2023-03-20T10:00:00;17.59;48.09
76785;SHT30;66893;44.316;0.092;2023-03-20T10:02:44;17.62;47.97
76785;SHT30;66893;44.316;0.092;2023-03-20T10:06:16;17.71;47.84
76785;SHT30;66893;44.316;0.092;2023-03-20T10:08:20;17.76;47.67
76785;SHT30;66893;44.316;0.092;2023-03-20T10:13:38;17.87;47.45
76785;SHT30;66893;44.316;0.092;2023-03-20T10:19:04;17.97;47.37
76785;SHT30;66893;44.316;0.092;2023-03-20T10:21:43;17.99;47.39
76785;SHT30;66893;44.316;0.092;2023-03-20T10:24:29;18.07;47.52
76785;SHT30;66893;44.316;0.092;2023-03-20T10:27:22;18.12;47.08
76785;SHT30;66893;44.316;0.092;2023-03-20T10:30:01;18.16;47.31
76785;SHT30;66893;44.316;0.092;2023-03-20T10:32:37;18.23;47.27
76785;SHT30;66893;44.316;0.092;2023-03-20T10:42:22;18.37;47.01
76785;SHT30;66893;44.316;0.092;2023-03-20T10:44:35;18.43;46.89
76785;SHT30;66893;44.316;0.092;2023-03-20T10:47:06;18.50;46.94
76785;SHT30;66893;44.316;0.092;2023-03-20T10:49:55;18.58;47.01
76785;SHT30;66893;44.316;0.092;2023-03-20T10:52:31;18.64;46.94
76785;SHT30;66893;44.316;0.092;2023-03-20T10:55:00;18.71;46.88
76785;SHT30;66893;44.316;0.092;2023-03-20T10:57:30;18.73;46.76
76785;SHT30;66893;44.316;0.092;2023-03-20T10:59:58;18.78;46.77
76785;SHT30;66893;44.316;0.092;2023-03-20T11:02:29;18.85;46.95
76785;SHT30;66893;44.316;0.092;2023-03-20T11:04:55;18.91;47.08
76785;SHT30;66893;44.316;0.092;2023-03-20T11:07:31;18.98;46.91
76785;SHT30;66893;44.316;0.092;2023-03-20T11:12:34;19.09;46.79
76785;SHT30;66893;44.316;0.092;2023-03-20T11:15:04;19.16;46.86
76785;SHT30;66893;44.316;0.092;2023-03-20T11:17:38;19.24;46.60
76785;SHT30;66893;44.316;0.092;2023-03-20T11:20:04;19.26;46.74
76785;SHT30;66893;44.316;0.092;2023-03-20T11:22:30;19.33;46.68
76785;SHT30;66893;44.316;0.092;2023-03-20T11:24:59;19.43;46.88
76785;SHT30;66893;44.316;0.092;2023-03-20T11:27:35;19.50;46.27
76785;SHT30;66893;44.316;0.092;2023-03-20T11:30:03;19.55;46.24
76785;SHT30;66893;44.316;0.092;2023-03-20T11:32:34;19.62;46.06
76785;SHT30;66893;44.316;0.092;2023-03-20T11:37:51;19.79;45.64
76785;SHT30;66893;44.316;0.092;2023-03-20T11:40:30;19.89;45.43
76785;SHT30;66893;44.316;0.092;2023-03-20T11:43:04;20.00;45.51
76785;SHT30;66893;44.316;0.092;2023-03-20T11:45:39;20.06;45.80
76785;SHT30;66893;44.316;0.092;2023-03-20T11:48:05;20.13;45.65
76785;SHT30;66893;44.316;0.092;2023-03-20T11:50:43;20.20;45.78
76785;SHT30;66893;44.316;0.092;2023-03-20T11:53:33;20.29;45.86
76785;SHT30;66893;44.316;0.092;2023-03-20T11:58:32;20.44;45.60
76785;SHT30;66893;44.316;0.092;2023-03-20T12:01:00;20.51;45.76
76785;SHT30;66893;44.316;0.092;2023-03-20T12:06:24;20.67;45.44
76785;SHT30;66893;44.316;0.092;2023-03-20T12:09:04;20.74;44.89
76785;SHT30;66893;44.316;0.092;2023-03-20T12:15:14;20.85;44.73
76785;SHT30;66893;44.316;0.092;2023-03-20T12:20:36;20.99;44.31
76785;SHT30;66893;44.316;0.092;2023-03-20T12:26:00;21.10;43.65
76785;SHT30;66893;44.316;0.092;2023-03-20T12:28:51;21.18;44.00
76785;SHT30;66893;44.316;0.092;2023-03-20T12:34:21;21.33;43.62
76785;SHT30;66893;44.316;0.092;2023-03-20T12:36:49;21.44;43.50
76785;SHT30;66893;44.316;0.092;2023-03-20T12:39:22;21.50;43.15
76785;SHT30;66893;44.316;0.092;2023-03-20T12:44:38;21.53;43.05
76785;SHT30;66893;44.316;0.092;2023-03-20T12:47:37;21.54;42.99
76785;SHT30;66893;44.316;0.092;2023-03-20T12:50:35;21.62;43.08
76785;SHT30;66893;44.316;0.092;2023-03-20T13:01:02;21.92;42.89
76785;SHT30;66893;44.316;0.092;2023-03-20T13:06:09;22.10;42.65
76785;SHT30;66893;44.316;0.092;2023-03-20T13:08:59;22.20;42.55
76785;SHT30;66893;44.316;0.092;2023-03-20T13:11:49;22.32;42.34
76785;SHT30;66893;44.316;0.092;2023-03-20T13:19:36;22.59;41.88
76785;SHT30;66893;44.316;0.092;2023-03-20T13:22:21;22.65;41.92
76785;SHT30;66893;44.316;0.092;2023-03-20T13:24:53;22.80;41.84
76785;SHT30;66893;44.316;0.092;2023-03-20T13:35:24;23.11;41.23
76785;SHT30;66893;44.316;0.092;2023-03-20T13:38:02;23.20;41.02
76785;SHT30;66893;44.316;0.092;2023-03-20T13:40:36;23.27;40.87
76785;SHT30;66893;44.316;0.092;2023-03-20T13:46:04;23.41;40.47
76785;SHT30;66893;44.316;0.092;2023-03-20T13:48:35;23.47;40.45
76785;SHT30;66893;44.316;0.092;2023-03-20T13:51:25;23.52;40.58
76785;SHT30;66893;44.316;0.092;2023-03-20T14:02:21;23.84;40.13
76785;SHT30;66893;44.316;0.092;2023-03-20T14:04:51;23.94;39.93
76785;SHT30;66893;44.316;0.092;2023-03-20T14:09:53;24.09;39.70
76785;SHT30;66893;44.316;0.092;2023-03-20T14:12:24;24.28;39.61
76785;SHT30;66893;44.316;0.092;2023-03-20T14:14:58;24.48;39.60
76785;SHT30;66893;44.316;0.092;2023-03-20T14:17:26;24.90;39.42
76785;SHT30;66893;44.316;0.092;2023-03-20T14:19:53;25.65;38.71
76785;SHT30;66893;44.316;0.092;2023-03-20T14:22:28;26.68;37.61
76785;SHT30;66893;44.316;0.092;2023-03-20T14:25:24;27.76;36.18
76785;SHT30;66893;44.316;0.092;2023-03-20T14:30:46;28.96;34.65
76785;SHT30;66893;44.316;0.092;2023-03-20T14:40:51;30.02;32.46
76785;SHT30;66893;44.316;0.092;2023-03-20T14:46:01;30.38;32.60
76785;SHT30;66893;44.316;0.092;2023-03-20T14:53:30;30.82;31.71
76785;SHT30;66893;44.316;0.092;2023-03-20T14:56:05;30.95;31.56
76785;SHT30;66893;44.316;0.092;2023-03-20T14:58:47;31.15;31.44
76785;SHT30;66893;44.316;0.092;2023-03-20T15:01:16;31.33;31.37
76785;SHT30;66893;44.316;0.092;2023-03-20T15:03:47;31.44;30.96
76785;SHT30;66893;44.316;0.092;2023-03-20T15:06:17;31.54;30.93
76785;SHT30;66893;44.316;0.092;2023-03-20T15:08:47;31.58;30.67
76785;SHT30;66893;44.316;0.092;2023-03-20T15:11:14;31.63;30.42
76785;SHT30;66893;44.316;0.092;2023-03-20T15:13:42;31.74;30.36
76785;SHT30;66893;44.316;0.092;2023-03-20T15:16:11;31.75;29.90
76785;SHT30;66893;44.316;0.092;2023-03-20T15:18:43;31.65;30.03
76785;SHT30;66893;44.316;0.092;2023-03-20T15:21:36;31.54;30.29
76785;SHT30;66893;44.316;0.092;2023-03-20T15:24:02;31.61;30.26
76785;SHT30;66893;44.316;0.092;2023-03-20T15:26:30;31.68;30.13
76785;SHT30;66893;44.316;0.092;2023-03-20T15:29:05;31.85;29.89
76785;SHT30;66893;44.316;0.092;2023-03-20T15:31:34;31.92;29.86
76785;SHT30;66893;44.316;0.092;2023-03-20T15:34:06;31.88;29.86
76785;SHT30;66893;44.316;0.092;2023-03-20T15:36:34;31.60;29.70
76785;SHT30;66893;44.316;0.092;2023-03-20T15:41:38;30.84;30.36
76785;SHT30;66893;44.316;0.092;2023-03-20T15:44:37;30.63;30.29
76785;SHT30;66893;44.316;0.092;2023-03-20T15:47:12;30.58;30.27
76785;SHT30;66893;44.316;0.092;2023-03-20T15:49:40;30.60;30.31
76785;SHT30;66893;44.316;0.092;2023-03-20T15:52:26;30.75;30.20
76785;SHT30;66893;44.316;0.092;2023-03-20T15:54:55;30.86;29.91
76785;SHT30;66893;44.316;0.092;2023-03-20T15:57:29;31.04;29.50
76785;SHT30;66893;44.316;0.092;2023-03-20T15:59:56;31.19;29.22
76785;SHT30;66893;44.316;0.092;2023-03-20T16:02:23;31.25;29.30
76785;SHT30;66893;44.316;0.092;2023-03-20T16:04:51;31.39;28.99
76785;SHT30;66893;44.316;0.092;2023-03-20T16:07:25;31.61;29.02
76785;SHT30;66893;44.316;0.092;2023-03-20T16:09:50;31.73;28.84
76785;SHT30;66893;44.316;0.092;2023-03-20T16:12:17;31.78;28.84
76785;SHT30;66893;44.316;0.092;2023-03-20T16:14:45;31.70;28.99
76785;SHT30;66893;44.316;0.092;2023-03-20T16:17:12;31.64;28.90
76785;SHT30;66893;44.316;0.092;2023-03-20T16:19:38;31.71;28.82
76785;SHT30;66893;44.316;0.092;2023-03-20T16:24:53;31.92;28.68
76785;SHT30;66893;44.316;0.092;2023-03-20T16:27:32;32.19;28.55
76785;SHT30;66893;44.316;0.092;2023-03-20T16:30:03;32.37;28.54
76785;SHT30;66893;44.316;0.092;2023-03-20T16:32:53;32.44;28.31
76785;SHT30;66893;44.316;0.092;2023-03-20T16:35:24;32.37;28.45
76785;SHT30;66893;44.316;0.092;2023-03-20T16:37:56;32.13;28.30
76785;SHT30;66893;44.316;0.092;2023-03-20T16:40:35;31.84;28.45
76785;SHT30;66893;44.316;0.092;2023-03-20T16:43:33;31.41;28.71
76785;SHT30;66893;44.316;0.092;2023-03-20T16:46:04;31.06;29.14
76785;SHT30;66893;44.316;0.092;2023-03-20T16:48:32;30.79;29.24
76785;SHT30;66893;44.316;0.092;2023-03-20T16:51:14;30.57;29.55
76785;SHT30;66893;44.316;0.092;2023-03-20T16:53:44;30.47;29.45
76785;SHT30;66893;44.316;0.092;2023-03-20T16:56:13;30.31;29.64
76785;SHT30;66893;44.316;0.092;2023-03-20T16:58:40;30.08;29.75
76785;SHT30;66893;44.316;0.092;2023-03-20T17:01:17;29.72;29.98
76785;SHT30;66893;44.316;0.092;2023-03-20T17:06:35;29.28;30.11
76785;SHT30;66893;44.316;0.092;2023-03-20T17:09:16;29.04;30.30
76785;SHT30;66893;44.316;0.092;2023-03-20T17:11:55;28.75;30.40
76785;SHT30;66893;44.316;0.092;2023-03-20T17:14:21;28.44;30.63
76785;SHT30;66893;44.316;0.092;2023-03-20T17:16:46;28.10;30.66
76785;SHT30;66893;44.316;0.092;2023-03-20T17:19:16;27.75;30.99
76785;SHT30;66893;44.316;0.092;2023-03-20T17:21:43;27.30;31.25
76785;SHT30;66893;44.316;0.092;2023-03-20T17:24:09;26.99;31.51
76785;SHT30;66893;44.316;0.092;2023-03-20T17:26:35;26.62;31.72
76785;SHT30;66893;44.316;0.092;2023-03-20T17:29:00;26.31;32.02
76785;SHT30;66893;44.316;0.092;2023-03-20T17:31:26;26.01;32.35
76785;SHT30;66893;44.316;0.092;2023-03-20T17:33:51;25.79;32.69
76785;SHT30;66893;44.316;0.092;2023-03-20T17:36:24;25.53;32.93
76785;SHT30;66893;44.316;0.092;2023-03-20T17:38:51;25.32;33.14
76785;SHT30;66893;44.316;0.092;2023-03-20T17:41:17;25.07;33.42
76785;SHT30;66893;44.316;0.092;2023-03-20T17:43:44;24.87;33.69
76785;SHT30;66893;44.316;0.092;2023-03-20T17:46:21;24.62;33.90
76785;SHT30;66893;44.316;0.092;2023-03-20T17:48:50;24.39;34.09
76785;SHT30;66893;44.316;0.092;2023-03-20T17:51:17;24.18;34.33
76785;SHT30;66893;44.316;0.092;2023-03-20T17:53:42;23.94;34.49
76785;SHT30;66893;44.316;0.092;2023-03-20T17:56:12;23.73;34.77
76785;SHT30;66893;44.316;0.092;2023-03-20T17:58:38;23.53;34.95
76785;SHT30;66893;44.316;0.092;2023-03-20T18:01:04;23.35;35.20
76785;SHT30;66893;44.316;0.092;2023-03-20T18:03:31;23.12;35.37
76785;SHT30;66893;44.316;0.092;2023-03-20T18:05:56;22.92;35.60
76785;SHT30;66893;44.316;0.092;2023-03-20T18:08:22;22.72;35.83
76785;SHT30;66893;44.316;0.092;2023-03-20T18:10:49;22.57;35.97
76785;SHT30;66893;44.316;0.092;2023-03-20T18:13:17;22.39;36.16